Meteo Giornale » Osservazioni meteo Gran Bretagna » Newcastle

ore: 03:20 - Osservazioni Meteo Newcastle
Lat. 55° 2' N Lon. 1° 42' W Alt. 81 metri s.l.m.

sereno Europe/London

11 °C

Sereno

Temp. 24 Ore

11 °C

23 °C

Sud-Ovest

7.4 Km/h

Dew point 7 °C

Umidità 76 %

Visibilità  10 Km

Il sole sorge alle ore 04:53

Il sole tramonta alle ore 21:32

Data e Ora Cielo e Fenomeni T °C DP °C Um. % Pres. hPa Vis. km Vento km/h
Oggi h: 03:20 sereno Sereno 11 7 76 1015 10 SO 7.4
Oggi h: 02:50 sereno Sereno 11 7 76 1016 10 O/SO 7.4
Oggi h: 02:20 sereno Sereno 11 7 76 1016 10 O/SO 7.4
Oggi h: 01:50 sereno Sereno 11 7 76 1016 10 SO 9.3
Oggi h: 01:20 sereno Sereno 12 7 71 1016 10 O/SO 7.4
Oggi h: 00:50 sereno Sereno 12 7 71 1016 10 O/SO 7.4
Oggi h: 00:20 sereno Sereno 12 7 71 1016 10 N 5.5
Ieri h: 23:50 sereno Sereno 12 7 71 1016 10 N 5.5
Ieri h: 23:20 sereno Sereno 13 7 66 1016 10 O/SO 7.4
Ieri h: 22:50 sereno Sereno 14 7 62 1016 10 O/SO 9.3
Ieri h: 22:20 sereno Sereno 14 8 67 1016 10 O 9.3
Ieri h: 21:50 sereno Sereno 16 9 63 1016 10 O 9.3
Ieri h: 21:20 sereno Sereno 16 8 58 1016 10 O 9.3
Ieri h: 20:50 sereno Sereno 19 9 52 1016 10 O 13
Ieri h: 19:50 poco_nuvoloso Poco Nuvoloso 20 9 49 1016 10 O 14.8
Ieri h: 19:20 poco_nuvoloso Poco Nuvoloso 20 9 49 1016 10 O 18.5
Ieri h: 18:50 poco_nuvoloso Poco Nuvoloso 22 9 43 1016 10 O 14.8
Ieri h: 18:20 poco_nuvoloso Poco Nuvoloso 22 10 46 1016 10 O/NO 13
Ieri h: 17:20 poco_nuvoloso Poco Nuvoloso 23 10 43 1016 10 O 11.1
Ieri h: 16:50 poco_nuvoloso Poco Nuvoloso 22 10 46 1017 10 N 5.5
Ieri h: 16:20 nuvoloso Nuvoloso 23 13 53 1017 10 N 7.4
Ieri h: 15:50 nuvoloso Nuvoloso 23 10 43 1017 10 O/NO 9.3
Ieri h: 15:20 nuvoloso Nuvoloso 22 10 46 1017 10 NO 11.1
Ieri h: 14:50 nuvoloso Nuvoloso 22 10 46 1017 10 O/SO 9.3
Ieri h: 14:20 nuvoloso Nuvoloso 22 10 46 1017 10 O 13
Ieri h: 13:50 nuvoloso Nuvoloso 22 11 49 1017 10 O 16.7
Ieri h: 13:20 nuvoloso Nuvoloso 22 11 49 1017 10 N 3.7
Ieri h: 12:50 poco_nuvoloso Poco Nuvoloso 22 11 49 1018 10 N 5.5
Ieri h: 12:20 poco_nuvoloso Poco Nuvoloso 20 11 56 1018 10 O/NO 9.3
Ieri h: 11:50 poco_nuvoloso Poco Nuvoloso 21 10 49 1018 10 O 9.3
Ieri h: 11:20 poco_nuvoloso Poco Nuvoloso 21 10 49 1018 10 N 5.5
Ieri h: 10:50 sereno Sereno 20 11 56 1018 10 N 5.5
Ieri h: 10:20 sereno Sereno 19 11 59 1018 10 O/NO 9.3
Ieri h: 09:50 sereno Sereno 19 11 59 1018 10 O/NO 9.3
Ieri h: 09:20 poco_nuvoloso Poco Nuvoloso 18 12 67 1018 10 O 9.3
Ieri h: 08:50 nuvoloso Nuvoloso 17 13 77 1019 10 O 11.1
Ieri h: 08:20 nuvoloso Nuvoloso 16 13 82 1019 10 O 9.3
Ieri h: 07:50 nuvoloso Nuvoloso 16 13 82 1019 10 O 9.3
Ieri h: 07:20 poco_nuvoloso Poco Nuvoloso 15 13 87 1019 10 O 9.3
Ieri h: 06:50 poco_nuvoloso Poco Nuvoloso 14 13 93 1019 10 O 9.3
Ieri h: 06:20 poco_nuvoloso Poco Nuvoloso 14 12 87 1018 9 O 7.4
Ieri h: 05:50 poco_nuvoloso Poco Nuvoloso 13 12 93 1018 9 N 5.5
Ieri h: 05:20 poco_nuvoloso Poco Nuvoloso 13 12 93 1019 9 O 7.4
Ieri h: 04:50 poco_nuvoloso Poco Nuvoloso 13 12 93 1019 10 N 1.8
Ieri h: 04:20 sereno Sereno 12 11 93 1019 10 N 0
Ieri h: 03:50 sereno Sereno 12 11 93 1019 10 N 1.8